Time;durP1;ratioP1;P1;durP2;ratioP2;P2;SDS_P1;SDS_P2;PMS_P1;PMS_P2;Temp;Humidity;BMP_temperature;BMP_pressure;BME280_temperature;BME280_humidity;BME280_pressure;Samples;Min_cycle;Max_cycle;Signal;HPM_P1;HPM_P2
2023/12/10 00:00:11;;;;;;;2.43;0.80;;;10.20;99.90;;;;;;7392091;19;20789;-77
2023/12/10 00:02:39;;;;;;;2.27;0.70;;;10.30;99.90;;;;;;7398274;19;20168;-77
2023/12/10 00:05:05;;;;;;;0.63;0.50;;;10.40;99.90;;;;;;7397274;19;20194;-77
2023/12/10 00:07:31;;;;;;;1.67;1.03;;;10.30;99.90;;;;;;7400532;19;20139;-76
2023/12/10 00:10:00;;;;;;;1.27;1.00;;;10.30;99.90;;;;;;7400451;19;20138;-77
2023/12/10 00:12:26;;;;;;;0.80;0.47;;;10.30;99.90;;;;;;7404288;19;20213;-77
2023/12/10 00:14:54;;;;;;;0.97;0.57;;;10.40;99.90;;;;;;7404328;19;20146;-79
2023/12/10 00:17:22;;;;;;;1.27;0.50;;;10.40;99.90;;;;;;7406175;19;20467;-77
2023/12/10 00:19:47;;;;;;;1.87;0.60;;;10.40;99.90;;;;;;7409002;19;20139;-77
2023/12/10 00:22:13;;;;;;;0.63;0.50;;;10.30;99.90;;;;;;7407357;19;20198;-77
2023/12/10 00:24:40;;;;;;;0.93;0.40;;;10.30;99.90;;;;;;7402261;19;20472;-77
2023/12/10 00:27:05;;;;;;;0.50;0.33;;;10.20;99.90;;;;;;7396508;19;20167;-78
2023/12/10 00:29:31;;;;;;;4.13;0.70;;;10.30;99.90;;;;;;7393969;19;20212;-77
2023/12/10 00:31:57;;;;;;;0.60;0.60;;;10.30;99.90;;;;;;7397871;19;20134;-77
2023/12/10 00:34:23;;;;;;;1.70;0.80;;;10.30;99.90;;;;;;7396077;19;20141;-77
2023/12/10 00:36:48;;;;;;;3.53;0.87;;;10.30;99.90;;;;;;7396682;19;20141;-76
2023/12/10 00:39:14;;;;;;;3.10;0.93;;;10.30;99.90;;;;;;7395965;19;20151;-77
2023/12/10 00:41:40;;;;;;;0.50;0.40;;;10.40;99.90;;;;;;7396729;19;20142;-77
2023/12/10 00:44:05;;;;;;;1.73;0.53;;;10.30;99.90;;;;;;7397522;19;20170;-77
2023/12/10 00:46:31;;;;;;;1.57;0.53;;;10.30;99.90;;;;;;7396758;19;20250;-76
2023/12/10 00:48:57;;;;;;;1.97;1.20;;;10.30;99.90;;;;;;7394063;19;20239;-76
2023/12/10 00:51:23;;;;;;;1.73;0.40;;;10.20;99.90;;;;;;7398080;19;20481;-77
2023/12/10 00:53:50;;;;;;;2.00;0.80;;;10.40;99.90;;;;;;7396041;19;20554;-76
2023/12/10 00:56:16;;;;;;;0.20;0.20;;;10.40;99.90;;;;;;7397837;19;20170;-77
2023/12/10 00:58:43;;;;;;;2.23;1.37;;;10.20;99.90;;;;;;7395342;19;20131;-75
2023/12/10 01:01:09;;;;;;;1.93;0.70;;;10.20;99.90;;;;;;7395149;19;20134;-77
2023/12/10 01:03:35;;;;;;;3.50;1.60;;;10.10;99.90;;;;;;7382773;19;20154;-77
2023/12/10 01:06:04;;;;;;;1.47;0.80;;;10.20;99.90;;;;;;7392691;19;20202;-78
2023/12/10 01:08:30;;;;;;;1.47;0.50;;;10.20;99.90;;;;;;7393661;19;20456;-77
2023/12/10 01:11:00;;;;;;;2.90;0.90;;;10.20;99.90;;;;;;7396823;19;20139;-76
2023/12/10 01:13:26;;;;;;;2.07;0.80;;;10.40;99.90;;;;;;7394261;19;20647;-77
2023/12/10 01:15:54;;;;;;;1.90;1.10;;;10.20;99.90;;;;;;7395005;19;20155;-77
2023/12/10 01:18:21;;;;;;;3.03;1.13;;;10.30;99.90;;;;;;7395395;19;20506;-76
2023/12/10 01:20:47;;;;;;;3.83;1.83;;;10.30;99.90;;;;;;7393957;19;20173;-76
2023/12/10 01:23:14;;;;;;;2.13;1.07;;;10.40;99.90;;;;;;7389648;19;20158;-77
2023/12/10 01:25:41;;;;;;;1.10;0.70;;;10.20;99.90;;;;;;7393305;19;20152;-77
2023/12/10 01:28:11;;;;;;;3.27;0.80;;;10.20;99.90;;;;;;7379799;19;20121;-76
2023/12/10 01:30:36;;;;;;;3.23;1.10;;;10.30;99.90;;;;;;7390256;19;20135;-76
2023/12/10 01:33:02;;;;;;;3.50;0.80;;;10.30;99.90;;;;;;7385865;19;20145;-77
2023/12/10 01:35:29;;;;;;;2.20;1.23;;;10.20;99.90;;;;;;7388790;19;20172;-78
2023/12/10 01:37:55;;;;;;;7.00;1.03;;;10.40;99.90;;;;;;7384717;19;20146;-77
2023/12/10 01:40:21;;;;;;;3.53;1.70;;;10.30;99.90;;;;;;7387986;19;20182;-76
2023/12/10 01:42:47;;;;;;;1.37;0.83;;;10.30;99.90;;;;;;7388066;19;20586;-78
2023/12/10 01:45:14;;;;;;;1.00;0.67;;;10.30;99.90;;;;;;7389999;19;20134;-77
2023/12/10 01:47:43;;;;;;;1.10;0.90;;;10.20;99.90;;;;;;7389435;19;20166;-77
2023/12/10 01:50:13;;;;;;;3.00;0.97;;;10.40;99.90;;;;;;7384876;19;20130;-77
2023/12/10 01:52:42;;;;;;;1.20;0.67;;;10.40;99.90;;;;;;7385224;19;20151;-76
2023/12/10 01:55:09;;;;;;;2.93;1.03;;;10.40;99.90;;;;;;7386308;19;20218;-78
2023/12/10 01:57:36;;;;;;;5.00;1.03;;;10.40;99.90;;;;;;7390224;19;20476;-76
2023/12/10 02:00:07;;;;;;;2.83;0.87;;;10.50;99.90;;;;;;7390315;19;20154;-76
2023/12/10 02:02:35;;;;;;;1.93;1.20;;;10.40;99.90;;;;;;7389192;19;20217;-76
2023/12/10 02:05:08;;;;;;;0.27;0.27;;;10.50;99.90;;;;;;7378552;19;21035;-77
2023/12/10 02:07:37;;;;;;;2.63;0.50;;;10.30;99.90;;;;;;7388622;19;20142;-76
2023/12/10 02:10:05;;;;;;;7.33;1.93;;;10.30;99.90;;;;;;7385355;19;20138;-76
2023/12/10 02:12:34;;;;;;;1.00;0.43;;;10.30;99.90;;;;;;7389110;19;20241;-77
2023/12/10 02:15:12;;;;;;;0.93;0.63;;;10.30;99.90;;;;;;7389018;19;20901;-75
2023/12/10 02:17:39;;;;;;;1.93;1.10;;;10.20;99.90;;;;;;7386896;19;20622;-76
2023/12/10 02:20:05;;;;;;;1.17;0.77;;;10.30;99.90;;;;;;7390010;19;20631;-77
2023/12/10 02:22:31;;;;;;;0.30;0.30;;;10.30;99.90;;;;;;7389451;19;20139;-76
2023/12/10 02:25:03;;;;;;;1.43;0.63;;;10.30;99.90;;;;;;7382432;19;20163;-78
2023/12/10 02:27:29;;;;;;;2.87;1.10;;;10.30;99.90;;;;;;7384004;19;20587;-77
2023/12/10 02:29:55;;;;;;;3.00;0.87;;;10.30;99.90;;;;;;7382463;19;20615;-76
2023/12/10 02:32:21;;;;;;;3.53;1.27;;;10.30;99.90;;;;;;7388586;19;20498;-77
2023/12/10 02:34:47;;;;;;;1.97;1.10;;;10.50;99.90;;;;;;7382813;19;20219;-77
2023/12/10 02:37:13;;;;;;;2.70;1.30;;;10.50;99.90;;;;;;7385920;19;20142;-77
2023/12/10 02:39:38;;;;;;;1.93;0.97;;;10.30;99.90;;;;;;7383245;19;20158;-76
2023/12/10 02:42:04;;;;;;;1.73;1.10;;;10.20;99.90;;;;;;7385207;19;20171;-76
2023/12/10 02:44:30;;;;;;;0.53;0.50;;;10.40;99.90;;;;;;7387353;19;20701;-76
2023/12/10 02:47:04;;;;;;;3.27;0.70;;;10.20;99.90;;;;;;7423941;19;20518;-76
2023/12/10 02:49:30;;;;;;;0.33;0.33;;;10.00;99.90;;;;;;7414188;19;20860;-77
2023/12/10 02:51:56;;;;;;;2.17;0.70;;;9.90;99.90;;;;;;7420874;19;20150;-77
2023/12/10 02:54:24;;;;;;;0.63;0.37;;;9.70;99.90;;;;;;7420310;19;20149;-76
2023/12/10 02:56:50;;;;;;;1.63;0.40;;;9.90;99.90;;;;;;7421465;19;20126;-77
2023/12/10 02:59:16;;;;;;;0.30;0.30;;;9.70;99.90;;;;;;7419899;19;20826;-77
2023/12/10 03:01:44;;;;;;;0.40;0.40;;;9.70;99.90;;;;;;7424659;19;20141;-77
2023/12/10 03:04:10;;;;;;;0.63;0.40;;;9.60;99.90;;;;;;7420782;19;20132;-77
2023/12/10 03:06:36;;;;;;;0.90;0.37;;;9.60;99.90;;;;;;7418093;19;20733;-76
2023/12/10 03:09:02;;;;;;;1.13;0.80;;;9.70;99.90;;;;;;7421785;19;20130;-76
2023/12/10 03:11:27;;;;;;;1.00;0.90;;;9.60;99.90;;;;;;7418797;19;20519;-77
2023/12/10 03:13:53;;;;;;;0.83;0.47;;;9.60;99.90;;;;;;7422286;19;20141;-77
2023/12/10 03:16:19;;;;;;;0.70;0.70;;;9.60;99.90;;;;;;7424137;19;20130;-77
2023/12/10 03:18:45;;;;;;;0.40;0.33;;;9.50;99.90;;;;;;7412865;19;20138;-77
2023/12/10 03:21:10;;;;;;;0.57;0.40;;;9.40;99.90;;;;;;7418700;19;20154;-76
2023/12/10 03:23:36;;;;;;;0.63;0.63;;;9.40;99.90;;;;;;7417793;19;20173;-76
2023/12/10 03:26:02;;;;;;;1.17;0.70;;;9.50;99.90;;;;;;7415549;19;20130;-77
2023/12/10 03:28:28;;;;;;;1.03;0.30;;;9.40;99.90;;;;;;7419053;19;20152;-76
2023/12/10 03:30:57;;;;;;;2.60;0.90;;;9.40;99.90;;;;;;7416464;19;20134;-76
2023/12/10 03:33:22;;;;;;;1.50;1.13;;;9.30;99.90;;;;;;7416433;19;20148;-76
2023/12/10 03:35:48;;;;;;;1.77;0.40;;;9.30;99.90;;;;;;7420480;19;20197;-76
2023/12/10 03:38:14;;;;;;;0.93;0.63;;;9.30;99.90;;;;;;7420344;19;20658;-77
2023/12/10 03:40:39;;;;;;;0.37;0.23;;;9.20;99.90;;;;;;7413634;19;20483;-77
2023/12/10 03:43:05;;;;;;;1.20;0.60;;;9.30;99.90;;;;;;7420542;19;20173;-77
2023/12/10 03:45:31;;;;;;;6.13;0.93;;;9.20;99.90;;;;;;7417097;19;20153;-76
2023/12/10 03:47:57;;;;;;;0.43;0.43;;;9.30;99.90;;;;;;7419596;19;20134;-76
2023/12/10 03:50:23;;;;;;;0.63;0.53;;;9.30;99.90;;;;;;7419237;19;20491;-76
2023/12/10 03:52:49;;;;;;;2.87;0.80;;;9.40;99.90;;;;;;7421840;19;20142;-77
2023/12/10 03:55:14;;;;;;;0.97;0.70;;;9.40;99.90;;;;;;7418784;19;20126;-79
2023/12/10 03:57:40;;;;;;;0.20;0.20;;;9.50;99.90;;;;;;7394569;19;20163;-77
2023/12/10 04:00:10;;;;;;;1.27;0.60;;;9.40;99.90;;;;;;7389808;19;20139;-77
2023/12/10 04:02:35;;;;;;;1.20;0.70;;;9.50;99.90;;;;;;7393171;19;20135;-79
2023/12/10 04:05:01;;;;;;;3.80;1.30;;;9.60;99.90;;;;;;7388307;19;20495;-77
2023/12/10 04:07:27;;;;;;;1.57;0.77;;;9.60;99.90;;;;;;7390101;19;20718;-78
2023/12/10 04:09:53;;;;;;;0.20;0.20;;;9.50;99.90;;;;;;7383889;19;20142;-76
2023/12/10 04:12:18;;;;;;;0.87;0.30;;;9.40;99.90;;;;;;7384849;19;20142;-77
2023/12/10 04:14:47;;;;;;;0.47;0.40;;;9.60;99.90;;;;;;7382817;19;20131;-77
2023/12/10 04:17:13;;;;;;;1.33;1.07;;;9.60;99.90;;;;;;7387081;19;20126;-77
2023/12/10 04:19:40;;;;;;;0.40;0.40;;;9.60;99.90;;;;;;7383018;19;20625;-77
2023/12/10 04:22:06;;;;;;;0.33;0.30;;;9.40;99.90;;;;;;7390464;19;20157;-76
2023/12/10 04:24:32;;;;;;;1.63;0.93;;;9.60;99.90;;;;;;7387590;19;20611;-76
2023/12/10 04:26:57;;;;;;;0.20;0.20;;;9.70;99.90;;;;;;7390621;19;20162;-77
2023/12/10 04:29:23;;;;;;;1.00;0.67;;;9.50;99.90;;;;;;7388126;19;20554;-76
2023/12/10 04:31:49;;;;;;;0.60;0.60;;;9.40;99.90;;;;;;7387278;19;20162;-77
2023/12/10 04:34:18;;;;;;;6.23;0.83;;;9.40;99.90;;;;;;7392667;19;20142;-77
2023/12/10 04:36:44;;;;;;;1.10;0.60;;;9.30;99.90;;;;;;7386586;19;20612;-78
2023/12/10 04:39:10;;;;;;;1.03;0.33;;;9.40;99.90;;;;;;7385911;19;20147;-76
2023/12/10 04:41:35;;;;;;;0.87;0.70;;;9.40;99.90;;;;;;7387649;19;20147;-77
2023/12/10 04:44:01;;;;;;;2.27;1.10;;;9.50;99.90;;;;;;7395880;19;20169;-76
2023/12/10 04:46:28;;;;;;;0.50;0.50;;;9.60;99.90;;;;;;7390372;19;20654;-77
2023/12/10 04:48:54;;;;;;;1.97;0.80;;;9.50;99.90;;;;;;7386537;19;20506;-77
2023/12/10 04:51:24;;;;;;;4.77;1.23;;;9.60;99.90;;;;;;7385549;19;20151;-78
2023/12/10 04:53:50;;;;;;;1.00;0.77;;;9.50;99.90;;;;;;7384799;19;20143;-76
2023/12/10 04:56:17;;;;;;;0.87;0.40;;;9.70;99.90;;;;;;7387017;19;20622;-78
2023/12/10 04:58:43;;;;;;;1.43;0.73;;;9.70;99.90;;;;;;7386738;19;20127;-77
2023/12/10 05:01:08;;;;;;;0.77;0.77;;;9.90;99.90;;;;;;7389532;19;20181;-77
2023/12/10 05:03:34;;;;;;;0.40;0.40;;;10.00;99.90;;;;;;7387297;19;20165;-78
2023/12/10 05:06:01;;;;;;;1.20;0.60;;;9.90;99.90;;;;;;7387465;19;20142;-76
2023/12/10 05:08:26;;;;;;;0.90;0.70;;;9.80;99.90;;;;;;7385793;19;20126;-77
2023/12/10 05:10:52;;;;;;;0.50;0.50;;;9.60;99.90;;;;;;7388659;19;20964;-78
2023/12/10 05:13:18;;;;;;;1.63;1.23;;;9.70;99.90;;;;;;7392091;19;20146;-77
2023/12/10 05:15:44;;;;;;;2.43;0.70;;;9.60;99.90;;;;;;7383172;19;20178;-77
2023/12/10 05:18:10;;;;;;;1.03;0.50;;;9.70;99.90;;;;;;7386974;19;20131;-77
2023/12/10 05:20:35;;;;;;;2.53;0.43;;;9.80;99.90;;;;;;7390398;19;20169;-76
2023/12/10 05:23:01;;;;;;;5.23;1.17;;;9.70;99.90;;;;;;7388157;19;20151;-76
2023/12/10 05:25:28;;;;;;;1.87;1.40;;;9.80;99.90;;;;;;7387380;19;20497;-77
2023/12/10 05:27:55;;;;;;;2.03;1.27;;;9.80;99.90;;;;;;7383509;19;20135;-76
2023/12/10 05:30:21;;;;;;;3.27;0.93;;;9.60;99.90;;;;;;7384448;19;20146;-77
2023/12/10 05:32:47;;;;;;;1.17;0.80;;;9.70;99.90;;;;;;7384344;19;20134;-76
2023/12/10 05:35:13;;;;;;;1.30;0.80;;;9.60;99.90;;;;;;7381562;19;20910;-77
2023/12/10 05:37:38;;;;;;;3.77;1.37;;;9.70;99.90;;;;;;7386683;19;20141;-77
2023/12/10 05:40:05;;;;;;;2.03;0.97;;;9.70;99.90;;;;;;7387565;19;20454;-77
2023/12/10 05:42:30;;;;;;;2.20;0.97;;;9.60;99.90;;;;;;7386773;19;20202;-77
2023/12/10 05:44:57;;;;;;;0.77;0.67;;;9.70;99.90;;;;;;7382906;19;20567;-77
2023/12/10 05:47:22;;;;;;;0.93;0.60;;;9.60;99.90;;;;;;7384823;19;20209;-77
2023/12/10 05:49:48;;;;;;;2.00;0.80;;;9.60;99.90;;;;;;7380007;19;20151;-76
2023/12/10 05:52:14;;;;;;;0.50;0.30;;;9.60;99.90;;;;;;7385179;19;21677;-76
2023/12/10 05:54:40;;;;;;;1.43;1.03;;;9.80;99.90;;;;;;7387680;19;20127;-77
2023/12/10 05:57:05;;;;;;;3.30;0.93;;;9.70;99.90;;;;;;7384211;19;20126;-76
2023/12/10 05:59:31;;;;;;;1.10;0.50;;;9.70;99.90;;;;;;7388982;19;20544;-76
2023/12/10 06:01:57;;;;;;;3.20;1.13;;;9.60;99.90;;;;;;7388520;19;20475;-75
2023/12/10 06:04:23;;;;;;;0.40;0.40;;;9.50;99.90;;;;;;7379916;19;20592;-76
2023/12/10 06:06:49;;;;;;;0.50;0.50;;;9.60;99.90;;;;;;7382404;19;20610;-77
2023/12/10 06:09:15;;;;;;;1.73;0.60;;;9.60;99.90;;;;;;7387743;19;20142;-76
2023/12/10 06:11:41;;;;;;;1.83;0.53;;;9.60;99.90;;;;;;7381822;19;20502;-77
2023/12/10 06:14:07;;;;;;;2.70;0.80;;;9.70;99.90;;;;;;7381749;19;20142;-77
2023/12/10 06:16:32;;;;;;;0.97;0.37;;;9.70;99.90;;;;;;7384361;19;20330;-77
2023/12/10 06:18:58;;;;;;;1.83;0.30;;;9.70;99.90;;;;;;7386522;19;20151;-77
2023/12/10 06:21:24;;;;;;;1.57;1.07;;;9.70;99.90;;;;;;7382178;19;20157;-77
2023/12/10 06:23:50;;;;;;;2.53;0.93;;;9.80;99.90;;;;;;7384461;19;20134;-75
2023/12/10 06:26:16;;;;;;;2.13;0.87;;;9.70;99.90;;;;;;7384154;19;20511;-78
2023/12/10 06:28:41;;;;;;;0.47;0.20;;;9.70;99.90;;;;;;7384571;19;20471;-76
2023/12/10 06:31:07;;;;;;;0.73;0.53;;;9.80;99.90;;;;;;7381316;19;20131;-76
2023/12/10 06:33:33;;;;;;;0.87;0.40;;;9.70;99.90;;;;;;7381246;19;20138;-76
2023/12/10 06:35:59;;;;;;;3.60;1.03;;;9.70;99.90;;;;;;7386469;19;20157;-77
2023/12/10 06:38:25;;;;;;;0.47;0.47;;;9.60;99.90;;;;;;7381433;19;20492;-76
2023/12/10 06:40:51;;;;;;;0.73;0.50;;;9.90;99.90;;;;;;7385416;19;20126;-77
2023/12/10 06:43:17;;;;;;;3.63;0.70;;;9.90;99.90;;;;;;7383599;19;20138;-77
2023/12/10 06:45:42;;;;;;;0.47;0.47;;;10.00;99.90;;;;;;7388029;19;20157;-76
2023/12/10 06:48:08;;;;;;;0.30;0.30;;;9.90;99.90;;;;;;7383099;19;20145;-77
2023/12/10 06:50:34;;;;;;;0.50;0.40;;;9.80;99.90;;;;;;7380921;19;20595;-76
2023/12/10 06:53:00;;;;;;;0.83;0.50;;;9.90;99.90;;;;;;7386042;19;20620;-76
2023/12/10 06:55:26;;;;;;;1.03;0.67;;;9.80;99.90;;;;;;7382222;19;20127;-77
2023/12/10 06:57:52;;;;;;;2.13;0.50;;;9.90;99.90;;;;;;7379377;19;20123;-77
2023/12/10 07:00:19;;;;;;;1.30;0.60;;;9.80;99.90;;;;;;7384569;19;20579;-76
2023/12/10 07:02:45;;;;;;;4.43;1.03;;;9.80;99.90;;;;;;7386227;19;20213;-76
2023/12/10 07:05:11;;;;;;;3.30;0.97;;;9.90;99.90;;;;;;7380748;19;20158;-76
2023/12/10 07:07:37;;;;;;;0.20;0.20;;;9.90;99.90;;;;;;7384918;19;20138;-77
2023/12/10 07:10:03;;;;;;;2.40;1.50;;;9.90;99.90;;;;;;7384785;19;20463;-77
2023/12/10 07:12:29;;;;;;;2.40;0.67;;;9.80;99.90;;;;;;7380967;19;20130;-76
2023/12/10 07:14:55;;;;;;;0.57;0.57;;;9.90;99.90;;;;;;7385611;19;20710;-77
2023/12/10 07:17:21;;;;;;;1.43;0.47;;;9.90;99.90;;;;;;7383467;19;20576;-76
2023/12/10 07:19:46;;;;;;;1.07;0.50;;;9.90;99.90;;;;;;7379981;19;20150;-76
2023/12/10 07:22:13;;;;;;;1.33;0.90;;;10.00;99.90;;;;;;7383612;19;20595;-77
2023/12/10 07:24:39;;;;;;;1.60;0.80;;;9.90;99.90;;;;;;7378828;19;20448;-78
2023/12/10 07:27:05;;;;;;;1.67;0.63;;;9.70;99.90;;;;;;7381665;19;20138;-78
2023/12/10 07:29:30;;;;;;;1.03;0.77;;;9.60;99.90;;;;;;7383708;19;20606;-77
2023/12/10 07:31:56;;;;;;;1.03;0.93;;;9.70;99.90;;;;;;7384747;19;20147;-76
2023/12/10 07:34:22;;;;;;;1.63;0.30;;;9.60;99.90;;;;;;7386964;19;20133;-77
2023/12/10 07:36:49;;;;;;;0.50;0.50;;;9.70;99.90;;;;;;7392315;19;20147;-78
2023/12/10 07:39:15;;;;;;;0.40;0.40;;;9.50;99.90;;;;;;7388358;19;20178;-78
2023/12/10 07:41:40;;;;;;;1.23;0.70;;;9.60;99.90;;;;;;7389227;19;20651;-77
2023/12/10 07:44:07;;;;;;;1.13;0.70;;;9.50;99.90;;;;;;7389449;19;20135;-77
2023/12/10 07:46:32;;;;;;;2.30;1.63;;;9.60;99.90;;;;;;7385984;19;20501;-77
2023/12/10 07:48:58;;;;;;;0.97;0.53;;;9.60;99.90;;;;;;7391184;19;20154;-77
2023/12/10 07:51:24;;;;;;;0.40;0.40;;;9.40;99.90;;;;;;7390932;19;20784;-76
2023/12/10 07:53:50;;;;;;;0.97;0.83;;;9.40;99.90;;;;;;7383325;19;21011;-76
2023/12/10 07:56:15;;;;;;;0.70;0.70;;;9.50;99.90;;;;;;7388632;19;20138;-77
2023/12/10 07:58:41;;;;;;;0.47;0.43;;;9.40;99.90;;;;;;7385930;19;20142;-76
2023/12/10 08:01:09;;;;;;;0.37;0.37;;;9.40;99.90;;;;;;7390855;19;20663;-76
2023/12/10 08:03:36;;;;;;;2.30;0.70;;;9.40;99.90;;;;;;7393099;19;20166;-77
2023/12/10 08:06:02;;;;;;;0.90;0.50;;;9.50;99.90;;;;;;7387100;19;20186;-78
2023/12/10 08:08:28;;;;;;;0.53;0.53;;;9.50;99.90;;;;;;7389472;19;20486;-76
2023/12/10 08:10:54;;;;;;;2.90;0.93;;;9.60;99.90;;;;;;7380604;19;20139;-77
2023/12/10 08:13:20;;;;;;;0.60;0.60;;;9.60;99.90;;;;;;7390662;19;20226;-76
2023/12/10 08:15:46;;;;;;;1.03;0.60;;;9.70;99.90;;;;;;7392414;19;20158;-76
2023/12/10 08:18:11;;;;;;;0.47;0.47;;;9.60;99.90;;;;;;7382837;19;20139;-76
2023/12/10 08:20:37;;;;;;;1.40;0.53;;;9.80;99.90;;;;;;7392273;19;20154;-78
2023/12/10 08:23:03;;;;;;;0.60;0.60;;;9.80;99.90;;;;;;7386863;19;20155;-79
2023/12/10 08:25:31;;;;;;;0.87;0.40;;;9.90;99.90;;;;;;7391377;19;20233;-78
2023/12/10 08:27:57;;;;;;;0.53;0.50;;;10.00;99.90;;;;;;7391236;19;20142;-79
2023/12/10 08:30:23;;;;;;;1.00;0.77;;;10.10;99.90;;;;;;7391225;19;20212;-79
2023/12/10 08:32:49;;;;;;;2.53;0.80;;;10.10;99.90;;;;;;7389735;19;20123;-75
2023/12/10 08:35:16;;;;;;;1.37;0.70;;;10.10;99.90;;;;;;7384014;19;20151;-77
2023/12/10 08:37:42;;;;;;;2.50;0.93;;;10.20;99.90;;;;;;7387877;19;20165;-75
2023/12/10 08:40:07;;;;;;;1.50;0.60;;;10.30;99.90;;;;;;7393205;19;20150;-76
2023/12/10 08:42:33;;;;;;;2.33;0.50;;;10.20;99.90;;;;;;7391712;19;20143;-76
2023/12/10 08:44:59;;;;;;;1.97;0.80;;;10.10;99.90;;;;;;7388704;19;20170;-75
2023/12/10 08:47:25;;;;;;;0.63;0.63;;;10.10;99.90;;;;;;7392992;19;20138;-77
2023/12/10 08:49:52;;;;;;;0.40;0.40;;;10.10;99.90;;;;;;7395189;19;20167;-76
2023/12/10 08:52:18;;;;;;;0.60;0.60;;;10.00;99.90;;;;;;7392609;19;20135;-78
2023/12/10 08:54:43;;;;;;;1.50;0.50;;;10.10;99.90;;;;;;7392178;19;20588;-77
2023/12/10 08:57:09;;;;;;;1.10;0.80;;;10.10;99.90;;;;;;7391088;19;20214;-77
2023/12/10 08:59:35;;;;;;;2.23;0.80;;;10.10;99.90;;;;;;7392854;19;20146;-77
2023/12/10 09:02:01;;;;;;;3.13;0.70;;;10.30;99.90;;;;;;7391640;19;20162;-76
2023/12/10 09:04:27;;;;;;;0.60;0.47;;;10.40;99.90;;;;;;7393288;19;20529;-77
2023/12/10 09:06:52;;;;;;;1.37;0.40;;;10.30;99.90;;;;;;7392685;19;20145;-78
2023/12/10 09:09:18;;;;;;;0.80;0.40;;;10.20;99.90;;;;;;7392636;19;20162;-75
2023/12/10 09:11:46;;;;;;;0.30;0.30;;;10.30;99.90;;;;;;7393368;19;20153;-75
2023/12/10 09:14:12;;;;;;;0.70;0.60;;;10.40;99.90;;;;;;7390921;19;20150;-75
2023/12/10 09:16:38;;;;;;;1.27;0.60;;;10.00;99.90;;;;;;7383859;19;20143;-77
2023/12/10 09:19:04;;;;;;;2.60;1.00;;;10.10;99.90;;;;;;7386450;19;20155;-74
2023/12/10 09:21:29;;;;;;;0.23;0.23;;;10.10;99.90;;;;;;7393215;19;20146;-75
2023/12/10 09:23:56;;;;;;;1.00;0.90;;;10.10;99.90;;;;;;7391280;19;20143;-78
2023/12/10 09:26:22;;;;;;;1.03;0.30;;;10.30;99.90;;;;;;7391259;19;20606;-74
2023/12/10 09:28:48;;;;;;;0.40;0.30;;;10.50;99.90;;;;;;7392658;19;20135;-75
2023/12/10 09:31:13;;;;;;;3.80;0.93;;;10.50;99.90;;;;;;7391648;19;20226;-77
2023/12/10 09:33:39;;;;;;;0.20;0.20;;;10.60;99.90;;;;;;7390281;19;20130;-75
2023/12/10 09:36:05;;;;;;;0.30;0.30;;;10.60;99.90;;;;;;7391584;19;20202;-77
2023/12/10 09:38:31;;;;;;;1.57;0.80;;;10.70;99.90;;;;;;7388051;19;20510;-78
2023/12/10 09:40:57;;;;;;;3.27;0.90;;;10.70;99.90;;;;;;7390967;19;20118;-78
2023/12/10 09:43:23;;;;;;;1.80;0.60;;;10.60;99.90;;;;;;7383984;19;20208;-77
2023/12/10 09:45:49;;;;;;;1.90;1.30;;;10.60;99.90;;;;;;7380143;19;20151;-77
2023/12/10 09:48:16;;;;;;;0.47;0.40;;;10.80;99.90;;;;;;7385830;19;20142;-76
2023/12/10 09:50:42;;;;;;;0.67;0.63;;;10.70;99.90;;;;;;7392392;19;20142;-77
2023/12/10 09:53:08;;;;;;;1.10;0.40;;;10.70;99.90;;;;;;7393263;19;20133;-78
2023/12/10 09:55:35;;;;;;;1.70;0.87;;;10.70;99.90;;;;;;7389145;19;20134;-77
2023/12/10 09:58:02;;;;;;;0.27;0.27;;;10.90;99.90;;;;;;7390106;19;20142;-77
2023/12/10 10:00:29;;;;;;;0.50;0.50;;;10.60;99.90;;;;;;7391948;19;20210;-76
2023/12/10 10:03:02;;;;;;;2.90;0.83;;;10.70;99.90;;;;;;7391516;19;20587;-77
2023/12/10 10:05:28;;;;;;;1.43;0.80;;;10.70;99.90;;;;;;7390108;19;20191;-77
2023/12/10 10:07:54;;;;;;;0.50;0.47;;;10.60;99.90;;;;;;7390438;19;20601;-76
2023/12/10 10:10:22;;;;;;;1.83;1.10;;;10.50;99.90;;;;;;7389213;19;20157;-76
2023/12/10 10:12:48;;;;;;;0.70;0.50;;;10.60;99.90;;;;;;7391041;19;20199;-75
2023/12/10 10:15:14;;;;;;;1.33;0.40;;;10.70;99.90;;;;;;7388380;19;20131;-75
2023/12/10 10:17:42;;;;;;;0.33;0.33;;;10.50;99.90;;;;;;7390312;19;20141;-74
2023/12/10 10:20:09;;;;;;;1.13;0.70;;;10.60;99.90;;;;;;7387976;19;20635;-76
2023/12/10 10:22:35;;;;;;;0.30;0.30;;;10.50;99.90;;;;;;7390665;19;20146;-76
2023/12/10 10:25:03;;;;;;;1.00;0.60;;;10.50;99.90;;;;;;7389758;19;20163;-76
2023/12/10 10:27:31;;;;;;;1.47;0.60;;;10.40;99.90;;;;;;7389605;19;20170;-76
2023/12/10 10:29:57;;;;;;;0.30;0.30;;;10.70;99.90;;;;;;7388241;19;20138;-75
2023/12/10 10:32:23;;;;;;;2.23;0.87;;;10.60;99.90;;;;;;7382667;19;20516;-75
2023/12/10 10:34:50;;;;;;;2.33;0.90;;;10.50;99.90;;;;;;7386401;19;20134;-75
2023/12/10 10:37:17;;;;;;;3.30;0.70;;;10.60;99.90;;;;;;7385706;19;20135;-75
2023/12/10 10:39:44;;;;;;;0.70;0.40;;;10.70;99.90;;;;;;7386974;19;20202;-76
2023/12/10 10:42:11;;;;;;;1.47;0.80;;;10.70;99.90;;;;;;7385531;19;20150;-75
2023/12/10 10:44:41;;;;;;;1.80;0.90;;;10.60;99.90;;;;;;7387108;19;20142;-74
2023/12/10 10:47:08;;;;;;;0.93;0.60;;;10.70;99.90;;;;;;7386303;19;20138;-76
2023/12/10 10:49:38;;;;;;;2.17;0.67;;;10.70;99.90;;;;;;7391735;19;20138;-75
2023/12/10 10:52:08;;;;;;;0.67;0.50;;;10.50;99.90;;;;;;7389488;19;20658;-73
2023/12/10 10:54:35;;;;;;;0.43;0.40;;;10.60;99.90;;;;;;7390580;19;20138;-76
2023/12/10 10:57:04;;;;;;;2.57;0.90;;;10.60;99.90;;;;;;7390020;19;20215;-76
2023/12/10 10:59:33;;;;;;;0.50;0.50;;;10.50;99.90;;;;;;7389283;19;20150;-76
2023/12/10 11:02:00;;;;;;;0.50;0.50;;;10.60;99.90;;;;;;7390271;19;20131;-74
2023/12/10 11:04:42;;;;;;;1.40;0.77;;;10.60;99.90;;;;;;7391101;19;20563;-75
2023/12/10 11:07:08;;;;;;;1.33;0.57;;;10.60;99.90;;;;;;7389894;19;20506;-76
2023/12/10 11:09:54;;;;;;;1.47;0.70;;;10.70;99.90;;;;;;7396742;19;20611;-75
2023/12/10 11:12:39;;;;;;;0.97;0.30;;;10.50;99.90;;;;;;7400753;19;20587;-74
2023/12/10 11:15:05;;;;;;;0.43;0.37;;;10.60;99.90;;;;;;7396867;19;20159;-75
2023/12/10 11:17:31;;;;;;;2.23;1.17;;;10.70;99.90;;;;;;7395577;19;20142;-76
2023/12/10 11:19:59;;;;;;;0.63;0.50;;;10.70;99.90;;;;;;7398039;19;20157;-74
2023/12/10 11:22:25;;;;;;;1.33;1.00;;;10.80;99.90;;;;;;7397197;19;20138;-75
2023/12/10 11:24:53;;;;;;;2.47;0.60;;;10.80;99.90;;;;;;7397545;19;20135;-76
2023/12/10 11:27:19;;;;;;;0.30;0.30;;;10.80;99.90;;;;;;7396302;19;20632;-76
2023/12/10 11:29:44;;;;;;;0.63;0.50;;;10.70;99.90;;;;;;7396116;19;20194;-75
2023/12/10 11:32:10;;;;;;;0.70;0.53;;;10.70;99.90;;;;;;7397707;19;20134;-75
2023/12/10 11:34:36;;;;;;;1.07;0.77;;;10.60;99.90;;;;;;7396474;19;20623;-75
2023/12/10 11:37:02;;;;;;;0.80;0.53;;;10.80;99.90;;;;;;7397409;19;20139;-75
2023/12/10 11:39:27;;;;;;;1.30;0.97;;;10.80;99.90;;;;;;7396158;19;20140;-76
2023/12/10 11:41:53;;;;;;;1.40;0.53;;;10.80;99.90;;;;;;7396158;19;20143;-75
2023/12/10 11:44:21;;;;;;;2.20;0.50;;;10.80;99.90;;;;;;7397679;19;20634;-75
2023/12/10 11:46:47;;;;;;;1.07;0.80;;;10.60;99.90;;;;;;7393298;19;20147;-76
2023/12/10 11:49:13;;;;;;;3.87;0.73;;;10.70;99.90;;;;;;7396028;19;20146;-75
2023/12/10 11:51:41;;;;;;;2.37;0.70;;;10.70;99.90;;;;;;7395971;19;20135;-74
2023/12/10 11:54:07;;;;;;;0.77;0.53;;;10.50;99.90;;;;;;7396933;19;20635;-75
2023/12/10 11:56:33;;;;;;;2.00;0.60;;;10.40;99.90;;;;;;7395783;19;20510;-75
2023/12/10 11:59:00;;;;;;;0.90;0.30;;;10.60;99.90;;;;;;7398619;19;20135;-74
2023/12/10 12:01:25;;;;;;;0.50;0.50;;;10.70;99.90;;;;;;7396424;19;20127;-75
2023/12/10 12:03:53;;;;;;;0.87;0.50;;;10.80;99.90;;;;;;7395250;19;20135;-74
2023/12/10 12:06:19;;;;;;;1.17;0.80;;;10.90;99.90;;;;;;7396194;19;20159;-75
2023/12/10 12:08:46;;;;;;;1.03;0.63;;;10.70;99.90;;;;;;7394251;19;20615;-73
2023/12/10 12:11:13;;;;;;;0.40;0.40;;;10.70;99.90;;;;;;7395528;19;20651;-75
2023/12/10 12:13:38;;;;;;;0.73;0.60;;;10.80;99.90;;;;;;7394943;19;20138;-75
2023/12/10 12:16:05;;;;;;;3.67;1.20;;;10.80;99.90;;;;;;7394487;19;20150;-74
2023/12/10 12:18:31;;;;;;;0.77;0.67;;;10.90;99.90;;;;;;7395230;19;20135;-75
2023/12/10 12:20:57;;;;;;;1.83;0.60;;;10.90;99.90;;;;;;7396249;19;20172;-75
2023/12/10 12:23:22;;;;;;;1.37;1.27;;;10.90;99.90;;;;;;7395312;19;20141;-75
2023/12/10 12:25:48;;;;;;;0.83;0.50;;;10.80;99.90;;;;;;7394090;19;20170;-75
2023/12/10 12:28:14;;;;;;;4.20;2.92;;;10.90;99.90;;;;;;7396712;19;20134;-75
2023/12/10 12:30:39;;;;;;;1.30;1.20;;;11.10;99.90;;;;;;7393885;19;20166;-75
2023/12/10 12:33:05;;;;;;;2.17;0.97;;;10.90;99.90;;;;;;7395387;19;20142;-74
2023/12/10 12:35:31;;;;;;;1.30;0.93;;;11.00;99.90;;;;;;7395228;19;20154;-74
2023/12/10 12:37:59;;;;;;;2.70;0.93;;;11.10;99.90;;;;;;7394594;19;20615;-74
2023/12/10 12:40:25;;;;;;;2.20;0.90;;;11.00;99.90;;;;;;7394665;19;20134;-75
2023/12/10 12:42:50;;;;;;;0.67;0.50;;;10.90;99.90;;;;;;7394707;19;20198;-73
2023/12/10 12:45:20;;;;;;;0.73;0.70;;;11.00;99.90;;;;;;7392996;19;20497;-75